Time;durP1;ratioP1;P1;durP2;ratioP2;P2;SDS_P1;SDS_P2;PMS_P1;PMS_P2;Temp;Humidity;BMP_temperature;BMP_pressure;BME280_temperature;BME280_humidity;BME280_pressure;Samples;Min_cycle;Max_cycle;Signal;HPM_P1;HPM_P2
2022/11/02 00:01:18;;;;;;;7.40;1.80;;;9.30;99.90;;;;;;5018632;28;20695;-81
2022/11/02 00:03:46;;;;;;;4.27;1.73;;;9.30;99.90;;;;;;5028354;28;20839;-85
2022/11/02 00:06:13;;;;;;;7.17;2.17;;;9.30;99.90;;;;;;5012166;28;20242;-80
2022/11/02 00:08:40;;;;;;;6.90;1.93;;;9.30;99.90;;;;;;5026014;28;20228;-82
2022/11/02 00:11:06;;;;;;;6.77;2.00;;;9.20;99.90;;;;;;5034868;28;20794;-85
2022/11/02 00:13:33;;;;;;;6.17;1.60;;;9.30;99.90;;;;;;5011795;28;20223;-83
2022/11/02 00:16:02;;;;;;;8.87;1.77;;;9.30;99.90;;;;;;5006315;28;20223;-80
2022/11/02 00:18:30;;;;;;;4.60;1.77;;;9.30;99.90;;;;;;5014170;28;20231;-83
2022/11/02 00:20:58;;;;;;;8.80;2.13;;;9.30;99.90;;;;;;5009192;28;20243;-85
2022/11/02 00:23:28;;;;;;;5.97;1.93;;;9.30;99.90;;;;;;5022849;28;20237;-81
2022/11/02 00:25:56;;;;;;;6.27;2.00;;;9.30;99.90;;;;;;5027096;28;20230;-82
2022/11/02 00:28:23;;;;;;;6.07;1.77;;;9.30;99.90;;;;;;5021668;28;20221;-82
2022/11/02 00:30:50;;;;;;;6.53;1.60;;;9.30;99.90;;;;;;5014733;28;20229;-83
2022/11/02 00:33:17;;;;;;;6.97;1.50;;;9.30;99.90;;;;;;5013254;28;20316;-81
2022/11/02 00:35:45;;;;;;;8.40;1.80;;;9.30;99.90;;;;;;4988533;28;20253;-82
2022/11/02 00:38:13;;;;;;;6.37;1.80;;;9.30;99.90;;;;;;5016772;28;20222;-82
2022/11/02 00:40:40;;;;;;;6.40;2.03;;;9.30;99.90;;;;;;5005889;28;20235;-84
2022/11/02 00:43:07;;;;;;;8.83;2.20;;;9.40;99.90;;;;;;5019468;28;20235;-81
2022/11/02 00:45:37;;;;;;;6.17;1.57;;;9.40;99.90;;;;;;5001544;28;20220;-82
2022/11/02 00:48:04;;;;;;;6.57;1.83;;;9.40;99.90;;;;;;4999769;28;20265;-81
2022/11/02 00:50:33;;;;;;;8.23;2.10;;;9.40;99.90;;;;;;5018645;28;20282;-84
2022/11/02 00:53:02;;;;;;;8.43;1.80;;;9.40;99.90;;;;;;5020364;28;20219;-81
2022/11/02 00:55:30;;;;;;;5.20;2.13;;;9.40;99.90;;;;;;4999226;28;20647;-82
2022/11/02 00:58:07;;;;;;;6.33;2.30;;;9.40;99.90;;;;;;5002128;28;20976;-83
2022/11/02 01:00:34;;;;;;;7.23;2.20;;;9.40;99.90;;;;;;5003761;28;20598;-82
2022/11/02 01:03:01;;;;;;;4.73;1.73;;;9.40;99.90;;;;;;5002214;28;20258;-83
2022/11/02 01:05:29;;;;;;;6.13;1.90;;;9.30;99.90;;;;;;5008887;28;20307;-83
2022/11/02 01:07:56;;;;;;;6.90;2.27;;;9.30;99.90;;;;;;5004092;28;20227;-83
2022/11/02 01:10:24;;;;;;;7.03;1.83;;;9.40;99.90;;;;;;4999880;28;20229;-84
2022/11/02 01:12:52;;;;;;;6.30;1.90;;;9.40;99.90;;;;;;5010988;28;20239;-88
2022/11/02 01:15:20;;;;;;;5.23;1.47;;;9.40;99.90;;;;;;5016822;28;20220;-82
2022/11/02 01:17:47;;;;;;;8.70;2.30;;;9.40;99.90;;;;;;5023200;28;20612;-81
2022/11/02 01:20:14;;;;;;;6.80;1.70;;;9.40;99.90;;;;;;5012492;28;20238;-85
2022/11/02 01:22:40;;;;;;;9.13;1.70;;;9.50;99.90;;;;;;5032475;28;20227;-81
2022/11/02 01:25:08;;;;;;;7.50;1.80;;;9.40;99.90;;;;;;5034940;28;20216;-87
2022/11/02 01:27:35;;;;;;;7.63;2.10;;;9.50;99.90;;;;;;5008998;28;20282;-82
2022/11/02 01:30:06;;;;;;;7.67;2.03;;;9.50;99.90;;;;;;5016687;28;20599;-84
2022/11/02 01:32:33;;;;;;;6.20;1.90;;;9.50;99.90;;;;;;5019348;28;20693;-82
2022/11/02 01:35:01;;;;;;;7.07;1.83;;;9.60;99.90;;;;;;5022269;28;20230;-87
2022/11/02 01:37:28;;;;;;;7.43;1.87;;;9.50;99.90;;;;;;5004573;28;20256;-82
2022/11/02 01:39:55;;;;;;;5.17;1.80;;;9.60;99.90;;;;;;5011007;28;20238;-84
2022/11/02 01:42:24;;;;;;;4.87;1.80;;;9.60;99.90;;;;;;5025396;28;20241;-87
2022/11/02 01:44:51;;;;;;;9.60;2.00;;;9.60;99.90;;;;;;5035706;28;20251;-84
2022/11/02 01:47:24;;;;;;;5.00;1.40;;;9.60;99.90;;;;;;5036715;28;20235;-82
2022/11/02 01:49:56;;;;;;;6.00;1.70;;;9.60;99.90;;;;;;5006304;28;20325;-83
2022/11/02 01:52:26;;;;;;;9.50;2.10;;;9.60;99.90;;;;;;5013835;28;20232;-83
2022/11/02 01:54:56;;;;;;;7.10;1.70;;;9.60;99.90;;;;;;5021082;28;20227;-81
2022/11/02 01:57:23;;;;;;;6.77;1.57;;;9.60;99.90;;;;;;5023806;28;20228;-84
2022/11/02 01:59:57;;;;;;;9.27;1.80;;;9.60;99.90;;;;;;5007565;28;20242;-83
2022/11/02 02:02:30;;;;;;;6.83;1.60;;;9.50;99.90;;;;;;5019047;28;20239;-84
2022/11/02 02:05:02;;;;;;;8.73;1.80;;;9.50;99.90;;;;;;5005540;28;20317;-86
2022/11/02 02:07:31;;;;;;;9.33;2.00;;;9.50;99.90;;;;;;5000552;28;20216;-81
2022/11/02 02:09:59;;;;;;;6.63;1.70;;;9.60;99.90;;;;;;4997218;28;20224;-81
2022/11/02 02:12:29;;;;;;;6.93;2.00;;;9.60;99.90;;;;;;4992239;28;20228;-85
2022/11/02 02:14:55;;;;;;;8.97;2.10;;;9.60;99.90;;;;;;4988465;28;20217;-82
2022/11/02 02:17:34;;;;;;;8.37;1.90;;;9.60;99.90;;;;;;5022533;28;20328;-86
2022/11/02 02:20:09;;;;;;;10.40;2.53;;;9.50;99.90;;;;;;5018911;28;20297;-82
2022/11/02 02:23:00;;;;;;;4.87;1.97;;;9.60;99.90;;;;;;5005475;28;20220;-82
2022/11/02 02:25:52;;;;;;;7.93;2.17;;;9.60;99.90;;;;;;5003283;28;20585;-83
2022/11/02 02:28:25;;;;;;;5.03;2.00;;;9.60;99.90;;;;;;5001307;28;20780;-83
2022/11/02 02:30:58;;;;;;;5.87;1.80;;;9.60;99.90;;;;;;5003002;28;20294;-81
2022/11/02 02:33:30;;;;;;;7.83;1.70;;;9.60;99.90;;;;;;5021966;28;20776;-82
2022/11/02 02:36:01;;;;;;;8.67;1.93;;;9.70;99.90;;;;;;5008096;28;20228;-81
2022/11/02 02:38:34;;;;;;;6.93;1.90;;;9.70;99.90;;;;;;5007493;28;20262;-81
2022/11/02 02:41:11;;;;;;;6.63;1.93;;;9.70;99.90;;;;;;5017132;28;20235;-81
2022/11/02 02:43:43;;;;;;;7.33;2.00;;;9.70;99.90;;;;;;5010814;28;20219;-80
2022/11/02 02:46:19;;;;;;;6.03;1.80;;;9.80;99.90;;;;;;5005612;28;20724;-82
2022/11/02 02:48:57;;;;;;;6.60;2.20;;;9.80;99.90;;;;;;4995211;28;20337;-83
2022/11/02 02:51:27;;;;;;;6.50;1.70;;;9.90;99.90;;;;;;5005228;28;20318;-82
2022/11/02 02:54:02;;;;;;;8.00;1.87;;;9.90;99.90;;;;;;5012029;28;20312;-82
2022/11/02 02:56:36;;;;;;;5.50;1.53;;;9.90;99.90;;;;;;5014828;28;20917;-82
2022/11/02 02:59:07;;;;;;;8.93;1.87;;;10.00;99.90;;;;;;5025195;28;20225;-82
2022/11/02 03:01:35;;;;;;;10.43;1.90;;;10.00;99.90;;;;;;5011931;28;20624;-83
2022/11/02 03:04:02;;;;;;;8.63;1.97;;;10.00;99.90;;;;;;5009793;28;20220;-82
2022/11/02 03:06:32;;;;;;;4.70;1.60;;;10.10;99.90;;;;;;5009956;28;20312;-84
2022/11/02 03:09:09;;;;;;;7.90;2.10;;;10.10;99.90;;;;;;5004199;28;20830;-84
2022/11/02 03:11:48;;;;;;;7.87;2.03;;;10.10;99.90;;;;;;5002372;28;20231;-83
2022/11/02 03:14:29;;;;;;;8.00;1.70;;;10.10;99.90;;;;;;5010733;28;20219;-84
2022/11/02 03:17:10;;;;;;;7.80;2.23;;;10.10;99.90;;;;;;5016010;28;20311;-83
2022/11/02 03:19:53;;;;;;;6.80;1.97;;;10.20;99.90;;;;;;5007750;28;20224;-84
2022/11/02 03:22:32;;;;;;;6.33;1.90;;;10.20;99.90;;;;;;5003935;28;20226;-82
2022/11/02 03:25:05;;;;;;;4.20;1.60;;;10.20;99.90;;;;;;5001061;28;20224;-84
2022/11/02 03:27:39;;;;;;;5.30;1.43;;;10.10;99.90;;;;;;5008188;28;20287;-83
2022/11/02 03:30:12;;;;;;;4.67;1.67;;;10.10;99.90;;;;;;5006936;28;20311;-81
2022/11/02 03:32:43;;;;;;;8.23;1.77;;;10.10;99.90;;;;;;5005948;28;20287;-83
2022/11/02 03:35:16;;;;;;;5.57;2.00;;;10.00;99.90;;;;;;5003627;28;20323;-83
2022/11/02 03:37:50;;;;;;;6.70;1.53;;;10.00;99.90;;;;;;5024438;28;20754;-82
2022/11/02 03:40:23;;;;;;;7.43;2.03;;;9.90;99.90;;;;;;5010400;28;20695;-82
2022/11/02 03:42:53;;;;;;;8.03;1.80;;;9.90;99.90;;;;;;5010213;28;20228;-83
2022/11/02 03:45:24;;;;;;;5.93;1.90;;;9.80;99.90;;;;;;5008543;28;20232;-87
2022/11/02 03:47:54;;;;;;;10.13;2.00;;;9.80;99.90;;;;;;5013359;28;20225;-83
2022/11/02 03:50:23;;;;;;;7.63;1.93;;;9.70;99.90;;;;;;5012515;28;20250;-86
2022/11/02 03:52:57;;;;;;;8.67;1.80;;;9.60;99.90;;;;;;5006282;28;20234;-87
2022/11/02 03:55:30;;;;;;;6.43;1.60;;;9.60;99.90;;;;;;5007329;28;20304;-82
2022/11/02 03:57:58;;;;;;;7.70;1.83;;;9.50;99.90;;;;;;5022785;28;20652;-84
2022/11/02 04:00:33;;;;;;;7.90;1.70;;;9.50;99.90;;;;;;5006602;28;20223;-83
2022/11/02 04:03:06;;;;;;;8.20;2.00;;;9.50;99.90;;;;;;5048087;23;20200;-95
2022/11/02 04:05:36;;;;;;;8.10;1.90;;;9.50;99.90;;;;;;5066844;28;20206;-95
2022/11/02 04:08:21;;;;;;;8.87;1.97;;;9.50;99.90;;;;;;5092920;28;20205;-95
2022/11/02 04:16:32;;;;;;;7.17;1.80;;;9.40;99.90;;;;;;5083588;28;20220;-96
2022/11/02 04:27:16;;;;;;;8.17;1.90;;;9.30;99.90;;;;;;5055475;28;20229;-93
2022/11/02 04:29:43;;;;;;;7.23;1.77;;;9.30;99.90;;;;;;5084729;28;20216;-95
2022/11/02 04:32:11;;;;;;;5.20;1.70;;;9.30;99.90;;;;;;5062849;28;20218;-92
2022/11/02 04:34:37;;;;;;;8.93;1.90;;;9.30;99.90;;;;;;5063426;28;20284;-92
2022/11/02 04:38:39;;;;;;;6.83;1.83;;;9.40;99.90;;;;;;5066038;28;20253;-92
2022/11/02 04:39:51;;;;;;;5.97;1.83;;;9.40;99.90;;;;;;5063907;28;20304;-92
2022/11/02 04:42:21;;;;;;;10.20;2.07;;;9.30;99.90;;;;;;5066487;28;20254;-92
2022/11/02 04:45:00;;;;;;;10.60;2.23;;;9.40;99.90;;;;;;5062728;28;20214;-93
2022/11/02 04:47:29;;;;;;;10.23;2.20;;;9.40;99.90;;;;;;5064926;28;20237;-92
2022/11/02 04:49:57;;;;;;;10.07;2.30;;;9.40;99.90;;;;;;5083834;28;20255;-93
2022/11/02 04:52:25;;;;;;;4.63;1.60;;;9.30;99.90;;;;;;5079199;28;20219;-94
2022/11/02 04:54:53;;;;;;;8.40;2.30;;;9.40;99.90;;;;;;5067075;28;20274;-93
2022/11/02 04:57:20;;;;;;;8.10;2.07;;;9.40;99.90;;;;;;5068201;28;20230;-94
2022/11/02 04:59:48;;;;;;;8.67;2.07;;;9.30;99.90;;;;;;5062179;28;20203;-93
2022/11/02 05:02:15;;;;;;;8.30;2.53;;;9.40;99.90;;;;;;5052836;28;20227;-94
2022/11/02 05:04:45;;;;;;;11.80;2.30;;;9.40;99.90;;;;;;5058810;28;21163;-94
2022/11/02 05:07:12;;;;;;;11.23;2.17;;;9.40;99.90;;;;;;5067488;28;20202;-92
2022/11/02 05:09:41;;;;;;;9.03;2.13;;;9.30;99.90;;;;;;5061589;28;20235;-94
2022/11/02 05:12:08;;;;;;;7.33;2.57;;;9.40;99.90;;;;;;5082010;28;20293;-93
2022/11/02 05:14:35;;;;;;;9.67;2.40;;;9.30;99.90;;;;;;5051796;28;20226;-94
2022/11/02 05:17:03;;;;;;;8.67;2.37;;;9.40;99.90;;;;;;5061761;28;20253;-95
2022/11/02 05:19:31;;;;;;;7.90;1.97;;;9.40;99.90;;;;;;5061381;28;20227;-93
2022/11/02 05:22:01;;;;;;;10.53;2.13;;;9.40;99.90;;;;;;5046319;28;20222;-95
2022/11/02 05:24:28;;;;;;;7.40;1.70;;;9.40;99.90;;;;;;5043186;28;20249;-91
2022/11/02 05:26:56;;;;;;;6.87;2.00;;;9.30;99.90;;;;;;5044584;28;20218;-93
2022/11/02 05:29:26;;;;;;;8.17;1.97;;;9.30;99.90;;;;;;5049093;28;20294;-92
2022/11/02 05:31:53;;;;;;;8.97;2.07;;;9.30;99.90;;;;;;5045845;28;20230;-94
2022/11/02 05:34:20;;;;;;;11.87;2.43;;;9.40;99.90;;;;;;5037161;28;20246;-93
2022/11/02 05:36:47;;;;;;;8.33;1.87;;;9.40;99.90;;;;;;5045835;28;20229;-93
2022/11/02 05:39:17;;;;;;;9.27;2.07;;;9.40;99.90;;;;;;5046500;28;20234;-92
2022/11/02 05:41:44;;;;;;;8.90;2.10;;;9.30;99.90;;;;;;5049092;28;20234;-93
2022/11/02 05:44:11;;;;;;;9.33;1.80;;;9.40;99.90;;;;;;5046667;28;20755;-92
2022/11/02 05:46:39;;;;;;;9.73;2.33;;;9.40;99.90;;;;;;5048552;28;20920;-93
2022/11/02 05:49:06;;;;;;;8.00;2.47;;;9.40;99.90;;;;;;5050981;28;20273;-91
2022/11/02 05:51:32;;;;;;;7.33;2.00;;;9.40;99.90;;;;;;5046179;28;20222;-94
2022/11/02 05:54:02;;;;;;;6.47;2.10;;;9.30;99.90;;;;;;5042088;28;20574;-93
2022/11/02 05:56:34;;;;;;;11.53;2.03;;;9.30;99.90;;;;;;5043207;28;20233;-93
2022/11/02 06:01:34;;;;;;;7.93;2.10;;;9.30;99.90;;;;;;4986908;28;20277;-82
2022/11/02 06:04:00;;;;;;;8.27;2.27;;;9.30;99.90;;;;;;5009660;28;20315;-81
2022/11/02 06:06:27;;;;;;;10.27;2.17;;;9.30;99.90;;;;;;5011696;28;20496;-81
2022/11/02 06:08:54;;;;;;;8.93;2.07;;;9.20;99.90;;;;;;5028011;28;20224;-81
2022/11/02 06:11:21;;;;;;;11.33;2.03;;;9.10;99.90;;;;;;5006374;28;20220;-81
2022/11/02 06:13:51;;;;;;;9.13;1.90;;;9.10;99.90;;;;;;5021665;28;20223;-80
2022/11/02 06:16:17;;;;;;;10.90;2.67;;;9.20;99.90;;;;;;5009324;28;20303;-81
2022/11/02 06:18:44;;;;;;;8.43;2.30;;;9.20;99.90;;;;;;5016050;28;20828;-81
2022/11/02 06:21:11;;;;;;;9.20;2.23;;;9.10;99.90;;;;;;5017124;28;20220;-81
2022/11/02 06:23:38;;;;;;;5.97;1.90;;;9.10;99.90;;;;;;5014482;28;20230;-83
2022/11/02 06:26:05;;;;;;;6.83;1.90;;;9.10;99.90;;;;;;5036481;28;20216;-83
2022/11/02 06:28:32;;;;;;;5.37;1.90;;;9.10;99.90;;;;;;5034821;28;20726;-81
2022/11/02 06:31:00;;;;;;;12.03;2.30;;;9.10;99.90;;;;;;5018931;28;20247;-81
2022/11/02 06:33:28;;;;;;;8.77;2.00;;;9.10;99.90;;;;;;5033339;28;20323;-82
2022/11/02 06:35:55;;;;;;;8.03;2.17;;;9.10;99.90;;;;;;5032189;28;20222;-81
2022/11/02 06:38:22;;;;;;;8.37;2.60;;;9.20;99.90;;;;;;5020381;28;20294;-81
2022/11/02 06:40:56;;;;;;;7.97;2.20;;;9.30;99.90;;;;;;5037394;28;20238;-81
2022/11/02 06:43:23;;;;;;;6.13;1.80;;;9.40;99.90;;;;;;5026179;28;20732;-84
2022/11/02 06:45:50;;;;;;;9.77;2.03;;;9.40;99.90;;;;;;5020200;28;20280;-82
2022/11/02 06:48:18;;;;;;;8.53;2.50;;;9.50;99.90;;;;;;5015149;28;20230;-84
2022/11/02 06:50:45;;;;;;;6.07;2.23;;;9.60;99.90;;;;;;5016176;28;20303;-84
2022/11/02 06:53:11;;;;;;;11.07;2.33;;;9.60;99.90;;;;;;5012541;28;20642;-82
2022/11/02 06:55:38;;;;;;;10.67;2.50;;;9.70;99.90;;;;;;5023173;28;20226;-82
2022/11/02 06:58:05;;;;;;;8.03;1.93;;;9.70;99.90;;;;;;5027032;28;20244;-83
2022/11/02 07:00:32;;;;;;;8.40;1.83;;;9.70;99.90;;;;;;5026515;28;20257;-84
2022/11/02 07:02:59;;;;;;;8.93;2.07;;;9.80;99.90;;;;;;5038356;28;20297;-82
2022/11/02 07:05:28;;;;;;;9.73;2.40;;;9.80;99.90;;;;;;5044552;28;20235;-83
2022/11/02 07:07:55;;;;;;;10.63;2.50;;;9.90;99.90;;;;;;5047015;28;20227;-83
2022/11/02 07:10:22;;;;;;;9.83;2.50;;;9.90;99.90;;;;;;5049671;28;20234;-84
2022/11/02 07:12:51;;;;;;;12.17;2.43;;;9.90;99.90;;;;;;5034983;28;20236;-84
2022/11/02 07:15:18;;;;;;;7.13;2.27;;;10.00;99.90;;;;;;5028688;28;20948;-84
2022/11/02 07:17:45;;;;;;;7.47;2.10;;;10.00;99.90;;;;;;5029481;28;20220;-84
2022/11/02 07:20:12;;;;;;;8.77;2.00;;;10.00;99.90;;;;;;5044017;28;20223;-84
2022/11/02 07:22:40;;;;;;;8.70;2.70;;;10.10;99.90;;;;;;5046690;28;20517;-83
2022/11/02 07:25:07;;;;;;;7.93;2.17;;;10.10;99.90;;;;;;5025968;28;20247;-84
2022/11/02 07:27:39;;;;;;;7.27;2.50;;;10.20;99.90;;;;;;5027892;28;20227;-83
2022/11/02 07:30:07;;;;;;;5.97;2.10;;;10.20;99.90;;;;;;5024689;28;20224;-83
2022/11/02 07:32:39;;;;;;;7.07;1.80;;;10.20;99.90;;;;;;5038974;28;20225;-85
2022/11/02 07:35:07;;;;;;;7.13;1.77;;;10.30;99.90;;;;;;5025212;28;20226;-84
2022/11/02 07:37:34;;;;;;;9.20;2.07;;;10.30;99.90;;;;;;5030373;28;20249;-83
2022/11/02 07:40:03;;;;;;;10.50;2.20;;;10.40;99.90;;;;;;5030903;28;20778;-84
2022/11/02 07:42:30;;;;;;;7.33;2.53;;;10.50;99.90;;;;;;5025130;28;20887;-82
2022/11/02 07:44:58;;;;;;;8.83;2.07;;;10.50;99.90;;;;;;5025644;28;20225;-88
2022/11/02 07:47:24;;;;;;;10.10;2.50;;;10.50;99.90;;;;;;5024042;28;20836;-85
2022/11/02 07:49:51;;;;;;;9.83;2.13;;;10.60;99.90;;;;;;5045854;28;20717;-86
2022/11/02 07:52:18;;;;;;;5.80;1.80;;;10.60;99.90;;;;;;5041849;28;20235;-85
2022/11/02 07:54:45;;;;;;;8.80;1.87;;;10.70;99.90;;;;;;5043768;28;20606;-85
2022/11/02 07:57:13;;;;;;;8.40;2.23;;;10.70;99.90;;;;;;5023402;28;20225;-86
2022/11/02 07:59:39;;;;;;;13.40;2.47;;;10.80;99.90;;;;;;5023677;28;20797;-85
2022/11/02 08:02:06;;;;;;;8.00;1.90;;;10.90;99.90;;;;;;5020854;28;20243;-87
2022/11/02 08:04:33;;;;;;;7.77;1.80;;;10.90;99.90;;;;;;5039620;28;20251;-85
2022/11/02 08:07:00;;;;;;;6.13;2.00;;;11.00;99.90;;;;;;5042795;28;20228;-84
2022/11/02 08:09:26;;;;;;;9.03;1.93;;;11.20;99.90;;;;;;5027395;28;20228;-85
2022/11/02 08:11:56;;;;;;;5.13;1.70;;;11.30;99.90;;;;;;5045709;28;20231;-83
2022/11/02 08:14:24;;;;;;;10.13;2.07;;;11.50;99.90;;;;;;5045712;28;20432;-84
2022/11/02 08:16:51;;;;;;;7.13;1.73;;;11.70;99.90;;;;;;5041935;28;20224;-84
2022/11/02 08:19:18;;;;;;;7.20;2.00;;;11.90;99.90;;;;;;5041881;28;20227;-84
2022/11/02 08:21:45;;;;;;;8.53;2.20;;;12.00;99.90;;;;;;5042301;28;20236;-83
2022/11/02 08:24:11;;;;;;;6.97;2.30;;;12.10;99.90;;;;;;5040713;28;20226;-84
2022/11/02 08:26:38;;;;;;;10.43;2.13;;;12.20;99.90;;;;;;5043440;28;20220;-84
2022/11/02 08:29:05;;;;;;;9.97;2.00;;;12.30;99.90;;;;;;5040714;28;20223;-84
2022/11/02 08:31:33;;;;;;;9.03;2.00;;;12.40;99.90;;;;;;5026792;28;20238;-83
2022/11/02 08:34:00;;;;;;;7.60;1.77;;;12.40;99.90;;;;;;5021600;28;20223;-84
2022/11/02 08:36:27;;;;;;;7.43;2.17;;;12.40;99.90;;;;;;5020829;28;20317;-84
2022/11/02 08:38:53;;;;;;;6.77;2.03;;;12.40;99.90;;;;;;5022392;28;20232;-83
2022/11/02 08:41:20;;;;;;;6.20;2.13;;;12.40;99.90;;;;;;5044002;28;20690;-84
2022/11/02 08:43:47;;;;;;;10.03;2.07;;;12.50;99.90;;;;;;5024659;28;20227;-84
2022/11/02 08:46:14;;;;;;;7.83;2.47;;;12.60;99.90;;;;;;5039881;28;20227;-84
2022/11/02 08:48:42;;;;;;;7.67;1.87;;;12.80;99.90;;;;;;5040152;28;20645;-84
2022/11/02 08:51:09;;;;;;;8.97;2.20;;;13.00;99.90;;;;;;5025409;28;20220;-84
2022/11/02 08:53:36;;;;;;;7.20;2.10;;;13.20;99.90;;;;;;5024761;28;20313;-84
2022/11/02 08:56:03;;;;;;;8.33;2.50;;;13.20;99.90;;;;;;5024163;28;20378;-84
2022/11/02 08:58:29;;;;;;;8.93;2.20;;;13.30;99.90;;;;;;5021658;28;20287;-84
2022/11/02 09:00:56;;;;;;;11.67;2.27;;;13.40;99.90;;;;;;5024220;28;20237;-83
2022/11/02 09:03:24;;;;;;;6.50;2.07;;;13.70;99.90;;;;;;5038739;28;20379;-84
2022/11/02 09:05:57;;;;;;;8.33;2.20;;;13.90;99.90;;;;;;5022140;28;20733;-82
2022/11/02 09:08:24;;;;;;;9.90;2.07;;;14.00;99.90;;;;;;5043800;28;20330;-84
2022/11/02 09:10:51;;;;;;;10.17;2.10;;;14.20;99.90;;;;;;5045654;28;20232;-85
2022/11/02 09:13:23;;;;;;;6.97;2.03;;;14.20;99.90;;;;;;5041847;28;20238;-85
2022/11/02 09:15:52;;;;;;;8.07;1.83;;;14.20;99.90;;;;;;5026253;28;20233;-84
2022/11/02 09:18:18;;;;;;;6.83;2.00;;;14.10;99.90;;;;;;5040533;28;20240;-85
2022/11/02 09:20:47;;;;;;;6.53;1.90;;;14.10;99.90;;;;;;5044223;28;20223;-84
2022/11/02 09:23:15;;;;;;;7.33;1.83;;;14.10;99.90;;;;;;5041750;28;20227;-85
2022/11/02 09:25:42;;;;;;;12.10;2.20;;;14.00;99.90;;;;;;5048235;28;20694;-83
2022/11/02 09:28:09;;;;;;;7.20;1.93;;;14.00;99.90;;;;;;5047740;28;20228;-83
2022/11/02 09:30:35;;;;;;;8.90;1.97;;;13.90;99.90;;;;;;5027722;28;20873;-84
2022/11/02 09:33:04;;;;;;;12.87;2.10;;;13.80;99.90;;;;;;5023584;28;20286;-84
2022/11/02 09:35:33;;;;;;;6.60;2.03;;;13.70;99.90;;;;;;5023000;28;20237;-83
2022/11/02 09:38:00;;;;;;;6.50;2.20;;;13.60;99.90;;;;;;5037313;28;20230;-84
2022/11/02 09:40:31;;;;;;;7.37;2.37;;;13.50;99.90;;;;;;5023326;28;20228;-82
2022/11/02 09:43:06;;;;;;;6.20;1.60;;;13.50;99.90;;;;;;5021516;28;20215;-83
2022/11/02 09:45:36;;;;;;;10.63;1.60;;;13.50;99.90;;;;;;5037458;28;20683;-84
2022/11/02 09:48:07;;;;;;;7.70;2.20;;;13.50;99.90;;;;;;5039712;28;20681;-84
2022/11/02 09:50:42;;;;;;;5.70;2.03;;;13.50;99.90;;;;;;5022664;28;20227;-84
2022/11/02 09:53:15;;;;;;;5.73;1.87;;;13.60;99.90;;;;;;5018716;28;20375;-83
2022/11/02 09:55:49;;;;;;;7.73;1.60;;;13.60;99.90;;;;;;5019942;28;20229;-84
2022/11/02 09:58:21;;;;;;;6.03;1.73;;;13.60;99.90;;;;;;5039848;28;20223;-83
2022/11/02 10:00:48;;;;;;;7.20;1.93;;;13.60;99.90;;;;;;5043664;28;20296;-83
2022/11/02 10:03:26;;;;;;;6.73;2.07;;;13.60;99.90;;;;;;5022649;28;20226;-86
2022/11/02 10:05:58;;;;;;;7.37;2.37;;;13.60;99.90;;;;;;5024404;28;20234;-84
2022/11/02 10:08:35;;;;;;;4.97;2.07;;;13.50;99.90;;;;;;5022684;28;20762;-87
2022/11/02 10:11:18;;;;;;;7.43;1.90;;;13.50;99.90;;;;;;5039787;28;20241;-83
2022/11/02 10:13:51;;;;;;;4.50;1.77;;;13.40;99.90;;;;;;5046792;28;20230;-83
2022/11/02 10:16:21;;;;;;;9.60;2.20;;;13.40;99.90;;;;;;5021927;28;20222;-84
2022/11/02 10:18:51;;;;;;;5.97;1.93;;;13.30;99.90;;;;;;5041621;28;20235;-82
2022/11/02 10:21:21;;;;;;;5.93;1.53;;;13.30;99.90;;;;;;5047556;28;20230;-81
2022/11/02 10:23:51;;;;;;;6.53;2.10;;;13.30;99.90;;;;;;5028687;28;20276;-82
2022/11/02 10:26:29;;;;;;;9.20;2.30;;;13.20;99.90;;;;;;5028360;28;20322;-83
2022/11/02 10:28:58;;;;;;;7.93;2.10;;;13.20;99.90;;;;;;5050746;28;20310;-83
2022/11/02 10:31:29;;;;;;;8.03;2.27;;;13.00;99.90;;;;;;5048686;28;20230;-83
2022/11/02 10:33:59;;;;;;;6.67;1.63;;;12.80;99.90;;;;;;5041807;28;20229;-83
2022/11/02 10:36:39;;;;;;;4.30;1.43;;;12.60;99.90;;;;;;5047732;28;20219;-83
2022/11/02 10:39:16;;;;;;;5.23;1.30;;;12.30;99.90;;;;;;5048672;28;20230;-82
2022/11/02 10:42:00;;;;;;;9.63;1.77;;;12.10;99.90;;;;;;5040584;28;20233;-83
2022/11/02 10:44:54;;;;;;;10.97;1.97;;;12.00;99.90;;;;;;5027549;28;20227;-83
2022/11/02 10:47:23;;;;;;;7.47;1.80;;;11.90;99.90;;;;;;5045464;28;20233;-82
2022/11/02 10:50:13;;;;;;;7.00;1.83;;;11.90;99.90;;;;;;5045800;28;20283;-81
2022/11/02 10:52:42;;;;;;;9.63;2.33;;;12.00;99.90;;;;;;5023751;28;20262;-81
2022/11/02 10:55:14;;;;;;;8.00;2.30;;;12.10;99.90;;;;;;5048573;28;20260;-82
2022/11/02 10:57:43;;;;;;;5.40;1.97;;;12.30;99.90;;;;;;5049388;28;20249;-82
2022/11/02 11:00:23;;;;;;;7.10;1.80;;;12.50;99.90;;;;;;5046824;28;20231;-82
2022/11/02 11:03:03;;;;;;;6.63;2.10;;;12.80;99.90;;;;;;5051353;28;20245;-81
2022/11/02 11:05:29;;;;;;;6.87;2.23;;;12.90;99.90;;;;;;5049611;28;20227;-82
2022/11/02 11:07:56;;;;;;;8.03;1.97;;;13.00;99.90;;;;;;5036655;28;20234;-82
2022/11/02 11:10:24;;;;;;;7.57;1.93;;;13.00;99.90;;;;;;5026608;28;20244;-82
2022/11/02 11:12:52;;;;;;;9.77;2.03;;;13.00;99.90;;;;;;5037100;28;20239;-82
2022/11/02 11:15:23;;;;;;;7.63;2.53;;;13.00;99.90;;;;;;5029605;28;20228;-82
2022/11/02 11:17:50;;;;;;;5.60;1.90;;;13.00;99.90;;;;;;5049591;28;20810;-82
2022/11/02 11:20:33;;;;;;;6.63;2.00;;;12.90;99.90;;;;;;5050389;28;20229;-82
2022/11/02 11:23:20;;;;;;;6.03;2.00;;;12.80;99.90;;;;;;5049482;28;20232;-82
2022/11/02 11:25:56;;;;;;;5.57;1.63;;;12.80;99.90;;;;;;5046905;28;20223;-82
2022/11/02 11:28:27;;;;;;;4.47;1.40;;;12.70;99.90;;;;;;5031605;28;20254;-81
2022/11/02 11:31:07;;;;;;;6.00;1.70;;;12.70;99.90;;;;;;5050513;28;20218;-82
2022/11/02 11:33:42;;;;;;;7.67;1.83;;;12.60;99.90;;;;;;5028024;28;20569;-81
2022/11/02 11:36:10;;;;;;;7.10;1.47;;;12.50;99.90;;;;;;5032318;28;20234;-82
2022/11/02 11:38:46;;;;;;;5.83;1.80;;;12.50;99.90;;;;;;5032426;28;20223;-82
2022/11/02 11:41:13;;;;;;;11.67;2.77;;;12.40;99.90;;;;;;5032038;28;20617;-82
2022/11/02 11:43:41;;;;;;;5.17;1.47;;;12.40;99.90;;;;;;5046130;28;20233;-82
2022/11/02 11:46:11;;;;;;;7.90;1.80;;;12.30;99.90;;;;;;5028538;28;20217;-81
2022/11/02 11:48:40;;;;;;;5.03;1.50;;;12.30;99.90;;;;;;5047026;28;20314;-81
2022/11/02 11:51:30;;;;;;;7.67;2.30;;;12.20;99.90;;;;;;5047517;28;20910;-81
2022/11/02 11:54:25;;;;;;;10.37;1.50;;;12.20;99.90;;;;;;5048619;28;20228;-82
2022/11/02 11:56:53;;;;;;;6.30;1.53;;;12.20;99.90;;;;;;5048027;28;20230;-81
2022/11/02 11:59:25;;;;;;;4.57;1.50;;;12.30;99.90;;;;;;5028585;28;20244;-82
2022/11/02 12:01:56;;;;;;;5.17;1.30;;;12.30;99.90;;;;;;5052363;28;20234;-82
2022/11/02 12:04:28;;;;;;;6.27;1.47;;;12.30;99.90;;;;;;5047562;28;20226;-81
2022/11/02 12:07:10;;;;;;;8.87;2.00;;;12.40;99.90;;;;;;5054933;28;20230;-81
2022/11/02 12:09:46;;;;;;;7.63;1.90;;;12.40;99.90;;;;;;5033127;28;20231;-81
2022/11/02 12:12:25;;;;;;;10.27;2.27;;;12.40;99.90;;;;;;5037672;28;20226;-82
2022/11/02 12:15:03;;;;;;;7.10;1.67;;;12.30;99.90;;;;;;5047642;28;20698;-82
2022/11/02 12:17:49;;;;;;;6.50;1.40;;;12.20;99.90;;;;;;5029689;28;20642;-81
2022/11/02 12:20:53;;;;;;;5.63;1.30;;;12.10;99.90;;;;;;5030578;28;20384;-82
2022/11/02 12:23:36;;;;;;;4.33;1.27;;;12.00;99.90;;;;;;5031514;28;20478;-81
2022/11/02 12:26:18;;;;;;;4.10;0.90;;;11.80;99.90;;;;;;5026300;28;20231;-82
2022/11/02 12:28:52;;;;;;;6.23;1.60;;;11.70;99.90;;;;;;5049283;28;20741;-81
2022/11/02 12:31:30;;;;;;;3.77;1.07;;;11.50;99.90;;;;;;5021197;28;20218;-82
2022/11/02 12:34:26;;;;;;;4.80;0.90;;;11.30;99.90;;;;;;5045575;28;20221;-81
2022/11/02 12:37:04;;;;;;;6.03;1.33;;;11.20;99.90;;;;;;5049102;28;20232;-82
2022/11/02 12:39:44;;;;;;;2.93;1.30;;;11.10;99.90;;;;;;5029542;28;20647;-82
2022/11/02 12:42:23;;;;;;;6.83;1.60;;;11.10;99.90;;;;;;5045366;28;20303;-82
2022/11/02 12:45:03;;;;;;;9.47;1.83;;;11.10;99.90;;;;;;5044451;28;20236;-83
2022/11/02 12:47:44;;;;;;;8.80;1.70;;;11.20;99.90;;;;;;5025004;28;20224;-82
2022/11/02 12:50:19;;;;;;;5.80;1.67;;;11.30;99.90;;;;;;5038607;28;20711;-83
2022/11/02 12:52:58;;;;;;;6.90;1.53;;;11.40;99.90;;;;;;5046100;28;20636;-84
2022/11/02 12:55:30;;;;;;;6.30;1.53;;;11.60;99.90;;;;;;5043403;28;20239;-82
2022/11/02 12:58:01;;;;;;;5.53;1.40;;;11.70;99.90;;;;;;5044066;28;20586;-79
2022/11/02 13:00:30;;;;;;;6.03;1.73;;;11.90;99.90;;;;;;5038848;28;20226;-79
2022/11/02 13:03:05;;;;;;;7.13;1.70;;;12.00;99.90;;;;;;5019019;28;20236;-79
2022/11/02 13:05:38;;;;;;;5.73;1.40;;;12.10;99.90;;;;;;5039186;28;20239;-79
2022/11/02 13:08:13;;;;;;;7.80;1.60;;;12.20;99.90;;;;;;5020953;28;20233;-79
2022/11/02 13:10:44;;;;;;;5.03;1.17;;;12.30;99.90;;;;;;5039980;28;20233;-79
2022/11/02 13:13:17;;;;;;;5.73;1.50;;;12.40;99.90;;;;;;5021797;28;20235;-79
2022/11/02 13:18:19;;;;;;;3.77;1.03;;;12.60;99.90;;;;;;4991967;28;20227;-79
2022/11/02 13:20:49;;;;;;;4.53;1.33;;;12.60;99.90;;;;;;5006494;28;20733;-79
2022/11/02 13:23:25;;;;;;;5.07;1.23;;;12.60;99.90;;;;;;5023631;28;20830;-79
2022/11/02 13:25:56;;;;;;;5.33;1.50;;;12.60;99.90;;;;;;5020934;28;20232;-79
2022/11/02 13:28:32;;;;;;;6.70;1.50;;;12.60;99.90;;;;;;5031256;28;21651;-79